Time;durP1;ratioP1;P1;durP2;ratioP2;P2;SDS_P1;SDS_P2;PMS_P1;PMS_P2;Temp;Humidity;BMP_temperature;BMP_pressure;BME280_temperature;BME280_humidity;BME280_pressure;Samples;Min_cycle;Max_cycle;Signal;HPM_P1;HPM_P2
2022/06/23 00:01:41;;;;;;;8.40;6.97;;;13.90;99.90;;;;;;4982040;28;20132;-75
2022/06/23 00:04:15;;;;;;;8.02;6.97;;;13.80;99.90;;;;;;4998342;28;20042;-74
2022/06/23 00:07:16;;;;;;;8.98;7.45;;;13.80;99.90;;;;;;4997864;28;20136;-74
2022/06/23 00:09:48;;;;;;;8.10;7.03;;;13.80;99.90;;;;;;4994975;28;20050;-74
2022/06/23 00:12:32;;;;;;;9.00;7.70;;;13.70;99.90;;;;;;4998767;28;20056;-74
2022/06/23 00:15:04;;;;;;;9.05;7.63;;;13.70;99.90;;;;;;4998089;28;20042;-74
2022/06/23 00:17:34;;;;;;;9.30;8.00;;;13.60;99.90;;;;;;4998059;28;20280;-74
2022/06/23 00:20:11;;;;;;;;;;;13.60;99.90;;;;;;4981628;28;20069;-73
2022/06/23 00:22:41;;;;;;;8.35;7.25;;;13.60;99.90;;;;;;4977481;28;20864;-75
2022/06/23 00:25:15;;;;;;;8.50;7.60;;;13.60;99.90;;;;;;4998140;28;20038;-74
2022/06/23 00:27:41;;;;;;;9.07;7.80;;;13.50;99.90;;;;;;4996520;28;20042;-74
2022/06/23 00:30:38;;;;;;;9.02;7.53;;;13.50;99.90;;;;;;4965749;28;20515;-74
2022/06/23 00:33:18;;;;;;;7.80;6.93;;;13.50;99.90;;;;;;4979178;28;20046;-73
2022/06/23 00:35:45;;;;;;;7.60;6.90;;;13.40;99.90;;;;;;4997226;28;20420;-74
2022/06/23 00:38:31;;;;;;;8.43;7.47;;;13.40;99.90;;;;;;4949904;28;20046;-74
2022/06/23 00:40:59;;;;;;;9.27;7.95;;;13.40;99.90;;;;;;4959364;28;20058;-74
2022/06/23 00:43:27;;;;;;;9.00;7.88;;;13.30;99.90;;;;;;4959476;28;20053;-73
2022/06/23 00:45:55;;;;;;;9.65;8.32;;;13.30;99.90;;;;;;4971748;28;20511;-73
2022/06/23 00:48:42;;;;;;;9.13;8.02;;;13.20;99.90;;;;;;4961343;28;20069;-74
2022/06/23 00:51:23;;;;;;;10.75;9.07;;;13.30;99.90;;;;;;4975042;28;20042;-73
2022/06/23 00:54:28;;;;;;;9.70;8.70;;;13.20;99.90;;;;;;4973802;28;20614;-74
2022/06/23 00:57:13;;;;;;;10.15;8.98;;;13.10;99.90;;;;;;4979068;28;20053;-73
2022/06/23 00:59:51;;;;;;;11.23;9.85;;;13.10;99.90;;;;;;4966572;28;20497;-74
2022/06/23 01:02:32;;;;;;;10.90;9.13;;;13.10;99.90;;;;;;4982028;28;20054;-73
2022/06/23 01:05:11;;;;;;;11.95;9.85;;;13.10;99.90;;;;;;4983212;28;20046;-74
2022/06/23 01:07:59;;;;;;;12.10;10.27;;;13.00;99.90;;;;;;4982211;28;20341;-74
2022/06/23 01:10:52;;;;;;;12.07;10.73;;;13.00;99.90;;;;;;4963360;28;20866;-74
2022/06/23 01:13:36;;;;;;;10.23;9.15;;;13.00;99.90;;;;;;4982312;28;20042;-79
2022/06/23 01:16:18;;;;;;;11.60;9.98;;;13.00;99.90;;;;;;4980867;28;20053;-78
2022/06/23 01:18:53;;;;;;;11.40;9.65;;;13.00;99.90;;;;;;4986369;28;20089;-78
2022/06/23 01:21:29;;;;;;;12.32;9.77;;;13.00;99.90;;;;;;4963880;28;20587;-78
2022/06/23 01:24:27;;;;;;;12.32;11.02;;;13.00;99.90;;;;;;4981912;28;20052;-78
2022/06/23 01:26:52;;;;;;;12.95;10.73;;;13.00;99.90;;;;;;4981262;28;20046;-77
2022/06/23 01:29:28;;;;;;;11.43;10.23;;;12.90;99.90;;;;;;4978703;28;20163;-78
2022/06/23 01:32:04;;;;;;;12.30;10.57;;;12.90;99.90;;;;;;4979827;28;20140;-78
2022/06/23 01:34:54;;;;;;;12.98;10.93;;;12.80;99.90;;;;;;4973813;28;20141;-78
2022/06/23 01:37:28;;;;;;;11.63;10.35;;;12.80;99.90;;;;;;4980158;28;20061;-78
2022/06/23 01:40:09;;;;;;;13.73;11.68;;;12.80;99.90;;;;;;4983608;28;20049;-78
2022/06/23 01:42:58;;;;;;;13.98;11.20;;;12.70;99.90;;;;;;4989379;28;20076;-78
2022/06/23 01:45:24;;;;;;;13.57;12.23;;;12.70;99.90;;;;;;4968172;28;20040;-78
2022/06/23 01:48:10;;;;;;;13.48;11.80;;;12.70;99.90;;;;;;4984064;28;20405;-77
2022/06/23 01:50:42;;;;;;;14.82;12.60;;;12.70;99.90;;;;;;4982343;28;20062;-77
2022/06/23 01:53:23;;;;;;;13.85;12.35;;;12.70;99.90;;;;;;4984218;28;20312;-78
2022/06/23 01:56:07;;;;;;;13.18;11.57;;;12.70;99.90;;;;;;4983861;28;20486;-78
2022/06/23 01:58:40;;;;;;;13.73;11.65;;;12.70;99.90;;;;;;4975490;28;20065;-78
2022/06/23 02:01:14;;;;;;;14.80;12.43;;;12.70;99.90;;;;;;4981163;28;20046;-80
2022/06/23 02:03:43;;;;;;;14.07;12.18;;;12.70;99.90;;;;;;4995911;28;20133;-78
2022/06/23 02:06:22;;;;;;;16.08;12.18;;;12.70;99.90;;;;;;4982200;28;20057;-78
2022/06/23 02:08:54;;;;;;;16.05;13.38;;;12.60;99.90;;;;;;4997141;28;20580;-74
2022/06/23 02:11:38;;;;;;;13.73;12.27;;;12.60;99.90;;;;;;4985639;28;20058;-73
2022/06/23 02:14:11;;;;;;;15.57;12.55;;;12.60;99.90;;;;;;4984243;28;20042;-74
2022/06/23 02:16:55;;;;;;;14.68;12.90;;;12.70;99.90;;;;;;4971654;28;20046;-74
2022/06/23 02:19:40;;;;;;;15.48;13.30;;;12.70;99.90;;;;;;4980015;28;20508;-74
2022/06/23 02:22:16;;;;;;;14.93;13.18;;;12.70;99.90;;;;;;4971821;28;20575;-74
2022/06/23 02:25:11;;;;;;;15.55;12.88;;;12.70;99.90;;;;;;4985365;28;20054;-74
2022/06/23 02:27:49;;;;;;;14.98;12.77;;;12.70;99.90;;;;;;4984112;28;20472;-73
2022/06/23 02:30:38;;;;;;;15.65;13.05;;;12.70;99.90;;;;;;4980302;28;20100;-74
2022/06/23 02:33:07;;;;;;;16.50;13.52;;;12.80;99.90;;;;;;4986598;28;20046;-74
2022/06/23 02:36:06;;;;;;;15.65;13.90;;;12.70;99.90;;;;;;4981681;28;20054;-74
2022/06/23 02:38:42;;;;;;;15.48;13.32;;;12.70;99.90;;;;;;5012254;28;20409;-74
2022/06/23 02:41:39;;;;;;;17.35;13.02;;;12.70;99.90;;;;;;4965765;28;20082;-74
2022/06/23 02:44:19;;;;;;;16.30;13.57;;;12.70;99.90;;;;;;4996938;28;20042;-74
2022/06/23 02:47:04;;;;;;;15.00;13.27;;;12.70;99.90;;;;;;4987793;28;20043;-73
2022/06/23 02:50:00;;;;;;;16.85;12.93;;;12.70;99.90;;;;;;4967927;28;20116;-73
2022/06/23 02:52:59;;;;;;;15.35;13.40;;;12.70;99.90;;;;;;4971494;28;20134;-74
2022/06/23 02:55:39;;;;;;;16.90;14.15;;;12.70;99.90;;;;;;4968562;28;20046;-73
2022/06/23 02:58:13;;;;;;;16.40;14.07;;;12.70;99.90;;;;;;4978686;28;20524;-74
2022/06/23 03:00:42;;;;;;;16.33;13.80;;;12.60;99.90;;;;;;4968282;28;20061;-74
2022/06/23 03:03:34;;;;;;;16.02;13.52;;;12.60;99.90;;;;;;4978437;28;20046;-74
2022/06/23 03:06:21;;;;;;;17.10;13.75;;;12.60;99.90;;;;;;4982332;28;20144;-74
2022/06/23 03:09:00;;;;;;;15.27;13.70;;;12.70;99.90;;;;;;5012531;28;20046;-74
2022/06/23 03:11:52;;;;;;;16.77;13.77;;;12.70;99.90;;;;;;4978593;28;20050;-74
2022/06/23 03:14:42;;;;;;;16.90;14.02;;;12.70;99.90;;;;;;4978260;28;20046;-74
2022/06/23 03:17:30;;;;;;;16.08;14.30;;;12.60;99.90;;;;;;4978440;28;20389;-74
2022/06/23 03:20:33;;;;;;;15.80;14.10;;;12.60;99.90;;;;;;4984434;28;20072;-74
2022/06/23 03:23:08;;;;;;;15.55;12.80;;;12.60;99.90;;;;;;4984332;28;20061;-74
2022/06/23 03:25:55;;;;;;;16.40;13.88;;;12.60;99.90;;;;;;4978414;28;20100;-74
2022/06/23 03:28:35;;;;;;;15.35;13.68;;;12.60;99.90;;;;;;4970610;28;20052;-74
2022/06/23 03:31:37;;;;;;;16.08;13.13;;;12.60;99.90;;;;;;4983380;28;20058;-74
2022/06/23 03:34:15;;;;;;;16.55;13.63;;;12.60;99.90;;;;;;4994637;28;20140;-74
2022/06/23 03:36:49;;;;;;;15.80;13.90;;;12.60;99.90;;;;;;4987545;28;20635;-74
2022/06/23 03:42:29;;;;;;;15.05;12.43;;;12.70;99.90;;;;;;4985499;28;20105;-73
2022/06/23 03:45:42;;;;;;;16.02;13.65;;;12.70;99.90;;;;;;4984621;28;20042;-73
2022/06/23 03:48:27;;;;;;;15.32;13.20;;;12.70;99.90;;;;;;4960438;28;20148;-73
2022/06/23 03:51:11;;;;;;;15.88;14.18;;;12.70;99.90;;;;;;4981527;28;20111;-73
2022/06/23 03:54:02;;;;;;;16.30;13.48;;;12.60;99.90;;;;;;4984605;28;20401;-74
2022/06/23 03:56:30;;;;;;;;;;;12.60;99.90;;;;;;4997238;28;20046;-74
2022/06/23 03:59:02;;;;;;;16.20;14.43;;;12.50;99.90;;;;;;4976935;28;19929;-74
2022/06/23 04:01:48;;;;;;;16.25;14.15;;;12.60;99.90;;;;;;4968742;28;20073;-74
2022/06/23 04:04:16;;;;;;;16.77;14.02;;;12.60;99.90;;;;;;4991882;28;20132;-73
2022/06/23 04:06:50;;;;;;;16.52;14.65;;;12.60;99.90;;;;;;4985800;28;20054;-74
2022/06/23 04:09:34;;;;;;;17.15;15.05;;;12.60;99.90;;;;;;4984857;28;20050;-73
2022/06/23 04:12:08;;;;;;;16.77;14.13;;;12.70;99.90;;;;;;4984364;28;20053;-73
2022/06/23 04:14:37;;;;;;;17.65;14.73;;;12.70;99.90;;;;;;4982520;28;20073;-77
2022/06/23 04:17:15;;;;;;;18.27;14.70;;;12.70;99.90;;;;;;4983795;28;20039;-78
2022/06/23 04:19:52;;;;;;;16.25;14.55;;;12.80;99.90;;;;;;4986459;28;20085;-77
2022/06/23 04:22:47;;;;;;;16.55;14.73;;;12.90;99.90;;;;;;4977696;28;20458;-78
2022/06/23 04:25:22;;;;;;;17.48;14.55;;;12.90;99.90;;;;;;4970984;28;20089;-77
2022/06/23 04:27:57;;;;;;;16.83;14.85;;;12.90;99.90;;;;;;4965457;28;20132;-78
2022/06/23 04:30:25;;;;;;;16.92;14.55;;;13.00;99.90;;;;;;4977420;28;20396;-78
2022/06/23 04:32:52;;;;;;;17.42;14.70;;;13.00;99.90;;;;;;4983495;28;20075;-73
2022/06/23 04:35:26;;;;;;;19.33;14.95;;;13.10;99.90;;;;;;4976286;28;20104;-73
2022/06/23 04:37:55;;;;;;;18.02;15.07;;;13.10;99.90;;;;;;4965194;28;20073;-73
2022/06/23 04:40:48;;;;;;;18.13;14.93;;;13.20;99.90;;;;;;4981081;28;20054;-72
2022/06/23 04:43:28;;;;;;;16.45;14.63;;;13.30;99.90;;;;;;4981527;28;20252;-72
2022/06/23 04:46:01;;;;;;;16.50;14.80;;;13.40;99.90;;;;;;4977170;28;20173;-73
2022/06/23 04:48:39;;;;;;;14.75;13.18;;;13.50;99.90;;;;;;4980463;28;20050;-73
2022/06/23 04:51:27;;;;;;;15.55;13.82;;;13.60;99.90;;;;;;4981634;28;20061;-73
2022/06/23 04:54:13;;;;;;;17.08;15.27;;;13.70;99.90;;;;;;4982457;28;20046;-73
2022/06/23 04:56:43;;;;;;;15.77;14.10;;;13.80;99.90;;;;;;4979522;28;20060;-72
2022/06/23 04:59:36;;;;;;;16.60;13.45;;;13.90;99.90;;;;;;4980479;28;20255;-73
2022/06/23 05:02:20;;;;;;;15.60;14.02;;;14.00;99.90;;;;;;4960776;28;20054;-72
2022/06/23 05:04:53;;;;;;;15.43;13.82;;;14.10;99.90;;;;;;4974714;28;20065;-73
2022/06/23 05:07:25;;;;;;;14.50;12.90;;;14.10;99.90;;;;;;4986088;28;20034;-73
2022/06/23 05:09:55;;;;;;;14.93;13.45;;;14.20;99.90;;;;;;4973431;28;20513;-73
2022/06/23 05:12:29;;;;;;;15.45;13.95;;;14.30;99.90;;;;;;4960394;28;20046;-73
2022/06/23 05:15:14;;;;;;;14.45;13.05;;;14.40;99.90;;;;;;4978114;28;20050;-73
2022/06/23 05:18:05;;;;;;;14.88;13.38;;;14.50;99.90;;;;;;4967052;28;20062;-73
2022/06/23 05:20:44;;;;;;;16.10;14.48;;;14.60;99.90;;;;;;4982315;28;20071;-73
2022/06/23 05:23:19;;;;;;;15.60;14.17;;;14.70;99.90;;;;;;4986052;28;20049;-73
2022/06/23 05:25:50;;;;;;;15.15;13.65;;;14.90;99.90;;;;;;4978517;28;20577;-73
2022/06/23 05:28:29;;;;;;;15.43;13.82;;;14.90;99.90;;;;;;4980072;28;20038;-73
2022/06/23 05:30:59;;;;;;;14.80;13.30;;;15.00;99.90;;;;;;4972956;28;20050;-73
2022/06/23 05:33:34;;;;;;;14.68;13.07;;;15.10;99.90;;;;;;4981787;28;20069;-73
2022/06/23 05:36:05;;;;;;;14.38;12.88;;;15.20;99.90;;;;;;4974568;28;20046;-74
2022/06/23 05:38:48;;;;;;;13.95;12.65;;;15.30;99.90;;;;;;4982031;28;20675;-74
2022/06/23 05:41:30;;;;;;;13.80;12.40;;;15.30;99.90;;;;;;4975214;28;20120;-73
2022/06/23 05:43:58;;;;;;;14.43;13.10;;;15.40;99.90;;;;;;4972195;28;20046;-73
2022/06/23 05:46:27;;;;;;;12.55;11.30;;;15.50;99.90;;;;;;4987997;28;20060;-74
2022/06/23 05:48:55;;;;;;;13.30;11.85;;;15.60;99.90;;;;;;4969612;28;20092;-73
2022/06/23 05:51:29;;;;;;;13.70;12.25;;;15.70;99.90;;;;;;4980205;28;20060;-74
2022/06/23 05:54:15;;;;;;;13.60;12.25;;;15.90;99.90;;;;;;4988855;28;20053;-74
2022/06/23 05:56:59;;;;;;;13.05;11.77;;;16.00;99.90;;;;;;4978384;28;20050;-73
2022/06/23 05:59:56;;;;;;;13.77;11.55;;;16.10;99.90;;;;;;4988990;28;20057;-73
2022/06/23 06:02:28;;;;;;;12.13;10.98;;;16.30;99.90;;;;;;4986106;28;20519;-73
2022/06/23 06:04:57;;;;;;;13.18;11.25;;;16.40;99.90;;;;;;4995257;28;20387;-74
2022/06/23 06:07:31;;;;;;;11.30;9.48;;;16.50;99.90;;;;;;4979719;28;20043;-73
2022/06/23 06:09:57;;;;;;;10.73;9.60;;;16.60;99.90;;;;;;4986736;28;20058;-73
2022/06/23 06:12:33;;;;;;;12.07;10.88;;;16.70;99.90;;;;;;4970189;28;20056;-74
2022/06/23 06:15:01;;;;;;;12.27;10.05;;;16.80;99.90;;;;;;4989410;28;20576;-74
2022/06/23 06:17:30;;;;;;;9.77;8.55;;;16.90;99.90;;;;;;4971585;28;20405;-73
2022/06/23 06:19:59;;;;;;;9.63;8.65;;;16.90;99.90;;;;;;5009315;28;20105;-74
2022/06/23 06:22:55;;;;;;;10.98;8.23;;;16.90;99.90;;;;;;4972509;28;20049;-72
2022/06/23 06:25:29;;;;;;;8.88;7.97;;;17.00;99.90;;;;;;4979180;28;20065;-74
2022/06/23 06:27:58;;;;;;;9.10;7.20;;;17.10;99.90;;;;;;4982637;28;20050;-73
2022/06/23 06:30:34;;;;;;;11.25;7.63;;;17.20;99.90;;;;;;4986300;28;20246;-73
2022/06/23 06:33:00;;;;;;;9.57;7.82;;;17.30;99.90;;;;;;4986445;28;20764;-74
2022/06/23 06:35:40;;;;;;;9.02;8.07;;;17.40;99.90;;;;;;4997280;28;20074;-73
2022/06/23 06:38:12;;;;;;;12.07;7.85;;;17.50;99.90;;;;;;4989532;28;20066;-73
2022/06/23 06:40:42;;;;;;;8.13;7.03;;;17.60;99.90;;;;;;4987350;28;20066;-73
2022/06/23 06:43:12;;;;;;;9.23;7.53;;;17.70;99.90;;;;;;4991820;28;20574;-73
2022/06/23 06:45:40;;;;;;;9.02;7.53;;;17.80;99.90;;;;;;4989177;28;20045;-73
2022/06/23 06:48:16;;;;;;;9.50;7.88;;;17.90;99.90;;;;;;4989179;28;20057;-74
2022/06/23 06:50:46;;;;;;;9.63;7.15;;;18.10;99.90;;;;;;4988731;28;20398;-73
2022/06/23 06:53:30;;;;;;;8.48;6.65;;;18.20;99.90;;;;;;4986834;28;20034;-73
2022/06/23 06:56:04;;;;;;;8.25;6.63;;;18.30;99.90;;;;;;4988275;28;20034;-73
2022/06/23 06:58:42;;;;;;;8.20;6.43;;;18.50;99.90;;;;;;4987887;28;20468;-73
2022/06/23 07:01:21;;;;;;;7.57;6.03;;;18.70;99.90;;;;;;4973809;28;20057;-73
2022/06/23 07:03:52;;;;;;;8.38;5.85;;;18.80;99.90;;;;;;4988428;28;20057;-72
2022/06/23 07:06:44;;;;;;;9.70;5.82;;;19.00;99.90;;;;;;4970457;28;20081;-74
2022/06/23 07:09:28;;;;;;;8.48;5.57;;;19.20;99.90;;;;;;4967276;28;20096;-72
2022/06/23 07:12:19;;;;;;;9.48;6.85;;;19.30;99.90;;;;;;4973127;28;20054;-72
2022/06/23 07:14:54;;;;;;;5.95;5.07;;;19.50;99.90;;;;;;4978028;28;20034;-73
2022/06/23 07:17:48;;;;;;;7.40;5.15;;;19.70;99.90;;;;;;4985378;28;20035;-72
2022/06/23 07:20:22;;;;;;;7.18;4.70;;;19.90;99.90;;;;;;4984523;28;20062;-73
2022/06/23 07:22:56;;;;;;;9.07;5.18;;;20.00;99.90;;;;;;4973595;28;20544;-73
2022/06/23 07:25:44;;;;;;;6.50;4.55;;;20.10;99.90;;;;;;4992053;28;20043;-74
2022/06/23 07:28:41;;;;;;;7.90;5.15;;;20.30;99.90;;;;;;4986915;28;20084;-73
2022/06/23 07:31:41;;;;;;;6.53;4.47;;;20.50;99.90;;;;;;4987547;28;20152;-72
2022/06/23 07:34:10;;;;;;;7.15;4.72;;;20.60;99.90;;;;;;4984504;28;20070;-74
2022/06/23 07:36:47;;;;;;;6.00;4.80;;;20.80;99.90;;;;;;4983135;28;20077;-74
2022/06/23 07:39:20;;;;;;;7.28;4.70;;;21.00;99.90;;;;;;4983826;28;20050;-72
2022/06/23 07:42:19;;;;;;;7.30;4.57;;;21.10;99.90;;;;;;4989769;28;20618;-73
2022/06/23 07:44:50;;;;;;;6.20;4.20;;;21.30;99.90;;;;;;4988671;28;20042;-73
2022/06/23 07:47:18;;;;;;;7.60;4.15;;;21.40;99.90;;;;;;4984037;28;20104;-73
2022/06/23 07:49:44;;;;;;;7.00;3.90;;;21.60;99.90;;;;;;5010745;28;20047;-74
2022/06/23 07:52:15;;;;;;;7.15;4.35;;;21.80;99.90;;;;;;4987424;28;20525;-73
2022/06/23 07:54:42;;;;;;;6.70;4.45;;;21.80;99.90;;;;;;4991848;28;20041;-73
2022/06/23 07:57:12;;;;;;;5.97;4.63;;;22.00;99.90;;;;;;4977617;28;20049;-73
2022/06/23 07:59:48;;;;;;;5.22;3.90;;;22.10;99.90;;;;;;4976842;28;20074;-73
2022/06/23 08:02:36;;;;;;;6.95;4.00;;;22.10;99.90;;;;;;4987982;28;20073;-74
2022/06/23 08:05:07;;;;;;;9.45;3.80;;;22.30;99.90;;;;;;4993514;28;20144;-73
2022/06/23 08:07:34;;;;;;;6.38;4.32;;;22.40;99.90;;;;;;4973802;28;20061;-73
2022/06/23 08:10:08;;;;;;;6.90;4.22;;;22.50;99.90;;;;;;4996468;28;20674;-73
2022/06/23 08:12:58;;;;;;;5.40;4.00;;;22.70;99.90;;;;;;4991131;28;20053;-73
2022/06/23 08:18:39;;;;;;;6.53;4.35;;;22.80;99.90;;;;;;4989066;28;19965;-73
2022/06/23 08:22:00;;;;;;;6.65;4.18;;;23.00;99.90;;;;;;4987079;28;20038;-73
2022/06/23 08:24:26;;;;;;;6.20;4.00;;;23.10;99.90;;;;;;4925725;28;20046;-73
2022/06/23 08:27:13;;;;;;;7.57;4.18;;;23.20;99.90;;;;;;4978255;28;20105;-73
2022/06/23 08:30:05;;;;;;;7.25;3.97;;;23.30;99.90;;;;;;4977649;28;20050;-73
2022/06/23 08:32:31;;;;;;;5.85;4.07;;;23.50;99.90;;;;;;4973125;28;20177;-74
2022/06/23 08:35:27;;;;;;;6.75;3.92;;;23.60;99.90;;;;;;4959324;28;20058;-72
2022/06/23 08:37:59;;;;;;;6.85;4.03;;;23.60;99.90;;;;;;4995635;28;20144;-73
2022/06/23 08:40:40;;;;;;;5.90;3.78;;;23.80;99.90;;;;;;4981860;28;20056;-73
2022/06/23 08:43:40;;;;;;;6.07;3.97;;;23.90;99.90;;;;;;4979076;28;20042;-74
2022/06/23 08:46:12;;;;;;;;;;;24.00;99.90;;;;;;4989924;28;20360;-73
2022/06/23 08:48:48;;;;;;;4.93;3.40;;;24.10;99.90;;;;;;4977799;28;19922;-73
2022/06/23 08:51:28;;;;;;;4.68;3.20;;;24.20;99.90;;;;;;5012803;28;20054;-73
2022/06/23 08:54:14;;;;;;;6.35;3.75;;;24.40;99.90;;;;;;4990357;28;20222;-73
2022/06/23 08:56:47;;;;;;;5.45;3.22;;;24.50;99.90;;;;;;4991867;28;20057;-74
2022/06/23 08:59:27;;;;;;;4.32;3.20;;;24.70;99.40;;;;;;4971059;28;20163;-73
2022/06/23 09:02:10;;;;;;;5.25;3.20;;;24.90;98.20;;;;;;4969037;28;20511;-73
2022/06/23 09:04:58;;;;;;;5.28;3.25;;;25.00;94.70;;;;;;4980405;28;20049;-73
2022/06/23 09:07:27;;;;;;;5.75;3.33;;;25.10;94.00;;;;;;4967282;28;20057;-73
2022/06/23 09:10:17;;;;;;;6.90;3.78;;;25.20;95.30;;;;;;4981258;28;20083;-73
2022/06/23 09:13:07;;;;;;;5.68;3.00;;;25.40;96.60;;;;;;4983353;28;20535;-73
2022/06/23 09:15:38;;;;;;;6.93;3.60;;;25.50;94.60;;;;;;4983124;28;20635;-73
2022/06/23 09:18:10;;;;;;;4.75;3.20;;;25.60;94.10;;;;;;4985202;28;20050;-74
2022/06/23 09:20:57;;;;;;;5.40;2.83;;;25.80;94.70;;;;;;4971527;28;20049;-73
2022/06/23 09:23:34;;;;;;;7.10;3.47;;;25.90;92.10;;;;;;4981620;28;20042;-73
2022/06/23 09:26:14;;;;;;;5.60;2.97;;;25.90;90.60;;;;;;4987189;28;20042;-73
2022/06/23 09:28:48;;;;;;;5.00;3.20;;;25.90;91.40;;;;;;4990327;28;20512;-73
2022/06/23 09:31:53;;;;;;;5.68;2.90;;;26.10;91.00;;;;;;4975827;28;20629;-73
2022/06/23 09:34:38;;;;;;;4.72;3.00;;;26.30;89.60;;;;;;4972122;28;20136;-74
2022/06/23 09:37:15;;;;;;;8.10;3.40;;;26.30;85.80;;;;;;4970195;28;20063;-73
2022/06/23 09:40:04;;;;;;;5.97;2.78;;;26.40;85.20;;;;;;4984601;28;20544;-73
2022/06/23 09:42:58;;;;;;;6.15;3.00;;;26.50;87.80;;;;;;4974593;28;20497;-73
2022/06/23 09:45:28;;;;;;;5.38;3.08;;;26.70;82.30;;;;;;4977986;28;20088;-72
2022/06/23 09:48:18;;;;;;;4.72;2.75;;;26.90;79.80;;;;;;4982314;28;20533;-73
2022/06/23 09:50:58;;;;;;;4.43;2.47;;;26.90;72.70;;;;;;4978990;28;20052;-72
2022/06/23 09:53:35;;;;;;;6.47;2.88;;;27.00;75.70;;;;;;4993370;28;20547;-72
2022/06/23 09:56:43;;;;;;;6.63;3.40;;;27.00;75.40;;;;;;4980838;28;20051;-72
2022/06/23 09:59:18;;;;;;;3.50;2.80;;;27.20;72.80;;;;;;4965410;28;20540;-72
2022/06/23 10:01:56;;;;;;;3.88;2.40;;;27.30;71.80;;;;;;4985922;28;20050;-72
2022/06/23 10:04:28;;;;;;;4.32;2.97;;;27.40;72.80;;;;;;4996866;28;20053;-72
2022/06/23 10:07:15;;;;;;;4.88;2.80;;;27.50;74.40;;;;;;4969678;28;20125;-73
2022/06/23 10:09:49;;;;;;;6.68;2.85;;;27.60;73.10;;;;;;4994448;28;20452;-73
2022/06/23 10:12:31;;;;;;;8.05;3.30;;;27.70;72.80;;;;;;4990301;28;20045;-72
2022/06/23 10:15:06;;;;;;;4.78;2.78;;;27.90;69.40;;;;;;4972354;28;20065;-73
2022/06/23 10:18:18;;;;;;;5.43;2.92;;;27.90;66.90;;;;;;4973589;28;20049;-73
2022/06/23 10:20:46;;;;;;;5.32;2.80;;;28.00;66.60;;;;;;4972942;28;20117;-72
2022/06/23 10:23:49;;;;;;;4.88;2.83;;;28.10;69.20;;;;;;4989451;28;21708;-72
2022/06/23 10:26:46;;;;;;;4.82;2.60;;;28.20;66.80;;;;;;4973203;28;20057;-73
2022/06/23 10:29:33;;;;;;;3.85;2.60;;;28.30;68.00;;;;;;4991960;28;20061;-74
2022/06/23 10:32:17;;;;;;;6.28;2.85;;;28.40;66.60;;;;;;4974240;28;20189;-72
2022/06/23 10:35:01;;;;;;;5.03;2.60;;;28.50;67.10;;;;;;4987780;28;20046;-72
2022/06/23 10:37:52;;;;;;;5.55;2.53;;;28.60;64.90;;;;;;4977729;28;21360;-74
2022/06/23 10:40:55;;;;;;;4.72;2.72;;;28.70;64.90;;;;;;4985845;28;20050;-73
2022/06/23 10:43:51;;;;;;;4.47;2.83;;;28.80;64.50;;;;;;4971538;28;20050;-72
2022/06/23 10:46:31;;;;;;;5.55;2.60;;;28.90;64.80;;;;;;4992002;28;20042;-73
2022/06/23 10:49:18;;;;;;;3.90;2.80;;;29.00;63.00;;;;;;4993994;28;20052;-73
2022/06/23 10:52:02;;;;;;;4.13;2.70;;;29.00;60.80;;;;;;4999310;28;20045;-72
2022/06/23 10:54:49;;;;;;;4.75;2.58;;;28.90;60.80;;;;;;4991346;28;20034;-74
2022/06/23 10:57:36;;;;;;;6.90;2.50;;;29.00;61.20;;;;;;4975801;28;20457;-73
2022/06/23 11:00:05;;;;;;;4.10;2.85;;;29.10;61.40;;;;;;4989263;28;20038;-73
2022/06/23 11:02:31;;;;;;;;;;;29.20;62.60;;;;;;4989248;28;20108;-73
2022/06/23 11:05:25;;;;;;;5.55;2.70;;;29.30;61.40;;;;;;4991995;28;19929;-73
2022/06/23 11:08:11;;;;;;;4.53;3.22;;;29.40;60.60;;;;;;4978650;28;20053;-74
2022/06/23 11:11:00;;;;;;;6.00;2.40;;;29.50;60.60;;;;;;4973229;28;20615;-75
2022/06/23 11:13:38;;;;;;;4.47;2.42;;;29.60;62.00;;;;;;4986949;28;20049;-74
2022/06/23 11:16:28;;;;;;;4.60;2.30;;;29.70;59.30;;;;;;4986123;28;20401;-74
2022/06/23 11:19:10;;;;;;;5.15;2.85;;;29.80;59.60;;;;;;4991894;28;20111;-74
2022/06/23 11:21:54;;;;;;;5.30;2.58;;;29.90;59.00;;;;;;4988877;28;20050;-73
2022/06/23 11:24:51;;;;;;;4.75;2.40;;;29.90;58.30;;;;;;4980528;28;20113;-75
2022/06/23 11:27:37;;;;;;;4.38;2.15;;;30.10;59.70;;;;;;4992055;28;20038;-74
2022/06/23 11:30:29;;;;;;;4.57;2.67;;;30.20;54.80;;;;;;4998212;28;20054;-74
2022/06/23 11:33:18;;;;;;;4.78;2.55;;;30.30;56.70;;;;;;4995537;28;20077;-73
2022/06/23 11:36:16;;;;;;;3.33;2.10;;;30.40;55.80;;;;;;4999400;28;20045;-73
2022/06/23 11:38:51;;;;;;;3.20;2.20;;;30.60;55.90;;;;;;4980175;28;20054;-73
2022/06/23 11:41:29;;;;;;;6.32;2.60;;;30.60;53.60;;;;;;4996711;28;20077;-73
2022/06/23 11:44:10;;;;;;;3.65;1.98;;;30.70;54.20;;;;;;4976823;28;20053;-75
2022/06/23 11:46:41;;;;;;;4.95;2.30;;;30.70;53.00;;;;;;4994160;28;20053;-73
2022/06/23 11:49:33;;;;;;;4.65;2.47;;;30.70;53.00;;;;;;4995277;28;20072;-74
2022/06/23 11:51:59;;;;;;;3.58;2.10;;;30.80;54.30;;;;;;4982012;28;20404;-75
2022/06/23 11:54:45;;;;;;;5.60;2.10;;;30.80;50.20;;;;;;4996256;28;20053;-74
2022/06/23 11:57:51;;;;;;;5.28;2.25;;;30.80;51.90;;;;;;4978450;28;20481;-73
2022/06/23 12:00:19;;;;;;;3.40;2.00;;;30.80;53.30;;;;;;4976927;28;20081;-74
2022/06/23 12:02:54;;;;;;;4.60;1.95;;;30.90;51.80;;;;;;4983624;28;20344;-74
2022/06/23 12:05:44;;;;;;;5.25;2.40;;;31.00;49.80;;;;;;4992953;28;20136;-74
2022/06/23 12:08:28;;;;;;;;;;;31.00;48.90;;;;;;4997463;28;20058;-74
2022/06/23 12:10:54;;;;;;;3.05;2.05;;;31.00;49.10;;;;;;4994070;28;19921;-73
2022/06/23 12:13:24;;;;;;;3.28;2.20;;;31.00;50.10;;;;;;4987604;28;20054;-75
2022/06/23 12:15:50;;;;;;;;;;;31.10;49.80;;;;;;4987772;28;20066;-73
2022/06/23 12:18:23;;;;;;;5.30;2.03;;;31.20;50.30;;;;;;4986922;28;19930;-76
2022/06/23 12:20:51;;;;;;;4.85;2.22;;;31.20;49.30;;;;;;4986860;28;20399;-75
2022/06/23 12:23:16;;;;;;;5.53;2.10;;;31.20;49.00;;;;;;4990285;28;20097;-74
2022/06/23 12:25:54;;;;;;;4.47;2.13;;;31.20;49.40;;;;;;4995036;28;20054;-74
2022/06/23 12:28:39;;;;;;;4.47;2.22;;;31.20;48.50;;;;;;4987055;28;20081;-73
2022/06/23 12:31:26;;;;;;;4.45;1.90;;;31.30;48.90;;;;;;4975141;28;20127;-75
2022/06/23 12:34:13;;;;;;;4.05;2.20;;;31.40;49.00;;;;;;4978795;28;20652;-74
2022/06/23 12:37:04;;;;;;;6.55;2.28;;;31.30;48.00;;;;;;4999532;28;20065;-73
2022/06/23 12:39:44;;;;;;;2.38;2.10;;;31.40;50.20;;;;;;4988352;28;20050;-73
2022/06/23 12:42:17;;;;;;;4.50;2.00;;;31.50;48.90;;;;;;4968944;28;20237;-74
2022/06/23 12:44:51;;;;;;;4.28;2.00;;;31.60;47.60;;;;;;4993015;28;20505;-73
2022/06/23 12:47:37;;;;;;;3.50;1.95;;;31.60;47.20;;;;;;4996764;28;20087;-72
2022/06/23 12:50:30;;;;;;;4.72;2.33;;;31.60;47.20;;;;;;4996087;28;20484;-74
2022/06/23 12:53:08;;;;;;;3.88;2.17;;;31.70;47.50;;;;;;4994092;28;20053;-74
2022/06/23 12:56:06;;;;;;;2.90;1.80;;;31.80;48.00;;;;;;4991720;28;20168;-76
2022/06/23 12:58:53;;;;;;;5.40;2.00;;;31.90;48.20;;;;;;4985525;28;20533;-75
2022/06/23 13:01:59;;;;;;;3.13;2.10;;;31.90;48.70;;;;;;4986538;28;20528;-74
2022/06/23 13:04:41;;;;;;;5.25;2.20;;;31.90;46.60;;;;;;4948190;28;20061;-74
2022/06/23 13:07:20;;;;;;;6.70;2.42;;;31.90;46.40;;;;;;4991201;28;20058;-74
2022/06/23 13:10:04;;;;;;;;;;;31.90;46.40;;;;;;4978167;28;20046;-74
2022/06/23 13:12:42;;;;;;;7.70;2.13;;;31.90;46.20;;;;;;4987122;28;19999;-74
2022/06/23 13:15:46;;;;;;;3.78;2.10;;;31.90;45.90;;;;;;4986377;28;20042;-75
2022/06/23 13:18:33;;;;;;;4.40;2.20;;;31.90;45.50;;;;;;4967498;28;20054;-74
2022/06/23 13:21:32;;;;;;;3.17;2.20;;;32.00;45.10;;;;;;4990703;28;20049;-75
2022/06/23 13:24:01;;;;;;;4.30;2.33;;;32.20;45.30;;;;;;4991186;28;20493;-74
2022/06/23 13:26:33;;;;;;;4.57;2.28;;;32.30;45.40;;;;;;4976113;28;20075;-75
2022/06/23 13:29:20;;;;;;;5.07;2.28;;;32.50;45.80;;;;;;4970221;28;20050;-76
2022/06/23 13:32:15;;;;;;;4.63;2.20;;;32.70;44.10;;;;;;4990082;28;20135;-75
2022/06/23 13:35:19;;;;;;;5.35;2.30;;;32.70;45.30;;;;;;4983777;28;20050;-73
2022/06/23 13:37:49;;;;;;;4.85;2.10;;;32.70;44.50;;;;;;4974740;28;20630;-72
2022/06/23 13:40:22;;;;;;;4.63;2.40;;;32.80;44.60;;;;;;4984248;28;20058;-74
2022/06/23 13:42:56;;;;;;;5.00;2.20;;;32.90;44.00;;;;;;4966171;28;20046;-74
2022/06/23 13:45:31;;;;;;;4.80;2.47;;;33.00;44.00;;;;;;4989738;28;20049;-74
2022/06/23 13:48:01;;;;;;;4.07;2.08;;;33.10;42.80;;;;;;4984771;28;20054;-74
2022/06/23 13:50:35;;;;;;;2.55;2.05;;;33.20;44.60;;;;;;4987668;28;20042;-74
2022/06/23 13:53:11;;;;;;;20.55;3.08;;;33.20;43.20;;;;;;4979104;28;20054;-75
2022/06/23 13:56:00;;;;;;;6.15;2.28;;;33.30;43.60;;;;;;4987343;28;20038;-74